Ana Sayfa
METAR-TAF:

METAR-TAF

Havaalanları :

Neuquén, Arjantin

Enlem: 38-57S, Boylam: 068-08W, yükseklik: 270 m

Güncel hava durumu gözlemi

Rapor saat 03:00 UTC de 1 saat ve 14 dakika önce yapıldı.
Sakin rüzgar
Sıcaklık 9°C
Nem 76%
Basınç 1017 hPa
Görüş mesafesi 10 km veya daha fazla
1500 m altında bulut yok ve kümülonimbus yok

METAR: SAZN 180300Z 00000KT CAVOK 09/05 Q1017

Saat: 01:14 (04:14 UTC)

Tahmin

Rapor saat 23:00 UTC de 5 saat ve 14 dakika önce yapıldı.
Ayın 18'si saat 00 UTC'den ayın 18'si saat 24 UTC'ye kadar geçerli Tahmin
Rüzgar değişken yönden 3 kt
Görüş mesafesi 10 km veya daha fazla
1500 m altında bulut yok ve kümülonimbus yok

TAF: SAZN 172300Z 1800/1824 VRB03KT CAVOK TX23/1820Z TN10/1811Z

4.000'den fazla havaalanı için hava durumu gözlemleri ve tahminleri (METAR ve TAF raporları).

Kullanılabilir istasyonlar harita üzerinde sarı ve kırmızı noktalarla gösterilir.

İstasyonun adını görmek için fareyi noktanın üzerinde gezdirin.

Sonrasında hava gözlem ve tahminlerini görmek için tıklayın.

Haritayı değiştirmek için: yaklaştırmak için siyah artı işaretli yeşil düğmeye ve uzaklaştırmak için de eksi işaretli düğmeye hızla tıklayın; bitişik haritalar için yeşil okları kullanın.


METAR-TAF: